Main page
METAR-TAF:

METAR-TAF

Airports :

Bauru, São Paulo, Brazil

Bauru Airport

latitude: 22-19S, longitude: 049-04W, elevation: 590 m

Current weather observation

The report was made 1 hour and 15 minutes ago, at 08:00 UTC
Wind 10 kt from the East
Temperature 20°C
Humidity 83%
Pressure 1014 hPa
Visibility 10 km or more
no clouds below 1500 m and no cumulonimbus

METAR: SBBU 260800Z 08010KT CAVOK 20/17 Q1014

Time: 06:15 (09:15 UTC)

Forecast

The report was made 5 hours and 45 minutes ago, at 03:30 UTC
Forecast valid from 26 at 06 UTC to 26 at 18 UTC
Wind 15 kt from the East/Southeast
Visibility 10 km or more
no clouds below 1500 m and no cumulonimbus
Becoming
from 26 at 12 UTC to 26 at 14 UTC
Wind 8 kt from the Southeast

TAF: SBBU 260330Z 2606/2618 12015KT CAVOK TN22/2609Z TX32/2617Z BECMG 2612/2614 13008KT RMK PDV

Weather observations and forecasts of more than 4000 airports (METAR and TAF reports).

The available stations are represented by yellow and red dots on the map.

Hover mouse over dot to see the name of the station.

Then click to see weather observations and forecasts.

To change the map : click on the green buttons with a black cross to zoom in, on the green button with a dash to zoom out, or on the green arrows for adjacent maps.


METAR-TAF: